createdAt,value
2023-05-11T00:00:26.946Z,99960.81
2023-05-11T00:05:28.585Z,99954.47
2023-05-11T00:10:30.417Z,99957.53
2023-05-11T00:15:31.980Z,99957.66
2023-05-11T00:20:33.605Z,99960.50
2023-05-11T00:25:35.185Z,99941.88
2023-05-11T00:30:36.793Z,99946.06
2023-05-11T00:35:38.472Z,99945.97
2023-05-11T00:40:40.209Z,99945.03
2023-05-11T00:45:41.787Z,99944.16
2023-05-11T00:50:43.612Z,99947.22
2023-05-11T00:55:45.313Z,99947.56
2023-05-11T01:00:49.558Z,99955.28
2023-05-11T01:06:28.980Z,99951.63
2023-05-11T01:11:36.403Z,99948.66
2023-05-11T01:16:40.921Z,99946.88
2023-05-11T01:21:43.858Z,99942.66
2023-05-11T01:27:07.506Z,99949.81
2023-05-11T01:32:15.947Z,99941.59
2023-05-11T01:37:23.123Z,99956.91
2023-05-11T01:42:30.567Z,99951.34
2023-05-11T01:47:32.318Z,99951.38
2023-05-11T01:52:35.628Z,99954.28
2023-05-11T01:57:38.338Z,99956.28
2023-05-11T02:02:41.409Z,99952.94
2023-05-11T02:07:44.286Z,99962.75
2023-05-11T02:12:46.717Z,99956.38
2023-05-11T02:17:50.924Z,99954.06
2023-05-11T02:22:54.003Z,99955.06
2023-05-11T02:27:55.594Z,99959.47
2023-05-11T02:32:59.161Z,99958.50
2023-05-11T02:38:03.121Z,99956.81
2023-05-11T02:43:11.525Z,99967.59
2023-05-11T02:48:22.811Z,99972.28
2023-05-11T02:53:27.830Z,99963.75
2023-05-11T02:58:30.355Z,99962.59
2023-05-11T03:03:44.995Z,99964.94
2023-05-11T03:08:47.867Z,99959.91
2023-05-11T03:13:51.285Z,99962.28
2023-05-11T03:18:55.502Z,99963.97
2023-05-11T03:23:57.956Z,99956.91
2023-05-11T03:29:00.302Z,99960.44
2023-05-11T03:34:01.995Z,99954.25
2023-05-11T03:39:09.087Z,99962.19
2023-05-11T03:44:12.195Z,99957.75
2023-05-11T03:49:17.032Z,99963.13
2023-05-11T03:54:18.772Z,99966.59
2023-05-11T03:59:20.892Z,99956.53
2023-05-11T04:04:29.843Z,99964.72
2023-05-11T04:09:33.419Z,99964.50
2023-05-11T04:14:35.037Z,99969.50
2023-05-11T04:19:36.655Z,99963.81
2023-05-11T04:24:38.804Z,99968.44
2023-05-11T04:29:40.471Z,99970.41
2023-05-11T04:34:42.497Z,99960.31
2023-05-11T04:39:45.230Z,99966.75
2023-05-11T04:44:47.029Z,99975.59
2023-05-11T04:49:52.739Z,99976.84
2023-05-11T04:54:54.585Z,99978.75
2023-05-11T04:59:56.504Z,99986.06
2023-05-11T05:04:58.388Z,99977.25
2023-05-11T05:09:59.969Z,99979.03
2023-05-11T05:15:01.552Z,99976.69
2023-05-11T05:20:04.504Z,99983.22
2023-05-11T05:25:06.723Z,99990.94
2023-05-11T05:30:08.890Z,99985.72
2023-05-11T05:35:10.640Z,99993.50
2023-05-11T05:40:12.971Z,99995.72
2023-05-11T05:45:22.201Z,99998.19
2023-05-11T05:50:24.907Z,100000.19
2023-05-11T05:55:26.846Z,100007.03
2023-05-11T06:00:29.941Z,100007.53
2023-05-11T06:05:38.182Z,100014.50
2023-05-11T06:10:39.894Z,100006.63
2023-05-11T06:15:44.115Z,99999.09
2023-05-11T06:21:06.056Z,100011.97
2023-05-11T06:26:08.149Z,100009.56
2023-05-11T06:31:10.406Z,100003.41
2023-05-11T06:36:14.407Z,100012.50
2023-05-11T06:41:16.304Z,100010.16
2023-05-11T06:46:18.086Z,100011.03
2023-05-11T06:51:21.905Z,100004.88
2023-05-11T06:56:23.606Z,100000.94
2023-05-11T07:01:25.209Z,99997.88
2023-05-11T07:06:27.676Z,100003.72
2023-05-11T07:11:30.820Z,99994.19
2023-05-11T07:16:32.544Z,100002.16
2023-05-11T07:21:34.961Z,100014.66
2023-05-11T07:26:36.534Z,100008.03
2023-05-11T07:31:38.198Z,100003.88
2023-05-11T07:36:39.820Z,100019.72
2023-05-11T07:41:41.459Z,100015.56
2023-05-11T07:46:43.127Z,100010.78
2023-05-11T07:51:44.829Z,100009.53
2023-05-11T07:56:46.424Z,100007.66
2023-05-11T08:01:48.069Z,100012.22
2023-05-11T08:06:49.868Z,100027.69
2023-05-11T08:11:51.526Z,100020.16
2023-05-11T08:16:53.263Z,100025.78
2023-05-11T08:21:54.820Z,100030.19
2023-05-11T08:26:56.714Z,100027.69
2023-05-11T08:31:58.889Z,100025.63
2023-05-11T08:37:04.379Z,100022.28
2023-05-11T08:42:07.052Z,100011.84
2023-05-11T08:47:21.242Z,100024.31
2023-05-11T08:52:25.965Z,100019.72
2023-05-11T08:57:29.266Z,100027.66
2023-05-11T09:02:31.836Z,100023.06
2023-05-11T09:07:37.298Z,100015.47
2023-05-11T09:12:39.252Z,100018.88
2023-05-11T09:17:40.930Z,100015.03
2023-05-11T09:22:46.768Z,100014.09
2023-05-11T09:27:48.631Z,100010.47
2023-05-11T09:32:56.792Z,99998.44
2023-05-11T09:38:12.250Z,100007.41
2023-05-11T09:43:22.831Z,100014.72
2023-05-11T09:48:26.676Z,100002.50
2023-05-11T09:53:54.624Z,100006.84
2023-05-11T09:58:57.547Z,100008.84
2023-05-11T10:04:13.925Z,100007.44
2023-05-11T10:09:24.740Z,99998.19
2023-05-11T10:14:27.692Z,100009.53
2023-05-11T10:19:29.292Z,100004.22
2023-05-11T10:24:31.635Z,100007.41
2023-05-11T10:29:34.172Z,100008.69
2023-05-11T10:34:36.754Z,100007.22
2023-05-11T10:39:41.802Z,99993.81
2023-05-11T10:45:01.561Z,100004.59
2023-05-11T10:50:14.991Z,100002.31
2023-05-11T10:55:28.034Z,99998.38
2023-05-11T11:00:48.247Z,100010.13
2023-05-11T11:05:50.036Z,100003.88
2023-05-11T11:10:51.922Z,100003.38
2023-05-11T11:15:53.905Z,100003.31
2023-05-11T11:20:57.131Z,100006.59
2023-05-11T11:25:58.857Z,100002.66
2023-05-11T11:31:23.423Z,99995.91
2023-05-11T11:37:03.852Z,99998.34
2023-05-11T11:42:07.259Z,100003.31
2023-05-11T11:47:21.550Z,100006.34
2023-05-11T11:52:29.121Z,100002.72
2023-05-11T11:57:37.916Z,100026.28
2023-05-11T12:02:44.255Z,100015.56
2023-05-11T12:07:49.847Z,100015.91
2023-05-11T12:12:55.032Z,100017.75
2023-05-11T12:17:57.075Z,100021.09
2023-05-11T12:22:58.777Z,100023.53
2023-05-11T12:28:02.919Z,100029.41
2023-05-11T12:33:07.965Z,100026.53
2023-05-11T12:38:11.118Z,100022.47
2023-05-11T12:43:17.996Z,100030.88
2023-05-11T12:48:19.574Z,100029.97
2023-05-11T12:53:22.099Z,100034.78
2023-05-11T12:58:23.672Z,100035.56
2023-05-11T13:03:30.513Z,100036.78
2023-05-11T13:08:32.188Z,100042.69
2023-05-11T13:13:33.783Z,100033.56
2023-05-11T13:18:35.553Z,100037.44
2023-05-11T13:23:37.175Z,100023.88
2023-05-11T13:28:38.793Z,100022.97
2023-05-11T13:33:40.420Z,100016.69
2023-05-11T13:38:42.160Z,100012.81
2023-05-11T13:43:45.031Z,100017.38
2023-05-11T13:48:46.620Z,100013.09
2023-05-11T13:53:48.486Z,100007.66
2023-05-11T13:58:50.058Z,100002.47
2023-05-11T14:03:52.706Z,100002.22
2023-05-11T14:08:54.506Z,99999.97
2023-05-11T14:13:56.172Z,99988.94
2023-05-11T14:18:57.859Z,99988.34
2023-05-11T14:24:10.874Z,99992.63
2023-05-11T14:29:15.656Z,99983.56
2023-05-11T14:34:17.761Z,99978.97
2023-05-11T14:39:19.334Z,99973.69
2023-05-11T14:44:25.260Z,99975.09
2023-05-11T14:49:27.030Z,99968.22
2023-05-11T14:54:28.563Z,99971.31
2023-05-11T14:59:30.122Z,99967.03
2023-05-11T15:04:33.661Z,99984.88
2023-05-11T15:09:35.879Z,99990.63
2023-05-11T15:14:37.440Z,99981.75
2023-05-11T15:19:39.026Z,99992.25
2023-05-11T15:24:41.204Z,99990.53
2023-05-11T15:29:42.860Z,99997.16
2023-05-11T15:34:58.679Z,100000.09
2023-05-11T15:40:01.831Z,100008.09
2023-05-11T15:45:03.630Z,100005.31
2023-05-11T15:50:05.651Z,100002.81
2023-05-11T15:55:07.702Z,100011.06
2023-05-11T16:00:10.541Z,100011.66
2023-05-11T16:05:12.255Z,100015.91
2023-05-11T16:10:13.904Z,100026.19
2023-05-11T16:15:15.689Z,100013.47
2023-05-11T16:20:17.504Z,100017.19
2023-05-11T16:25:19.291Z,100021.81
2023-05-11T16:30:24.433Z,100023.13
2023-05-11T16:35:27.066Z,100020.38
2023-05-11T16:40:28.692Z,100023.03
2023-05-11T16:45:30.290Z,100022.06
2023-05-11T16:50:32.453Z,100018.25
2023-05-11T16:55:34.061Z,100029.19
2023-05-11T17:00:36.116Z,100029.03
2023-05-11T17:05:37.764Z,100028.22
2023-05-11T17:10:40.740Z,100035.34
2023-05-11T17:15:42.316Z,100036.81
2023-05-11T17:20:43.927Z,100035.81
2023-05-11T17:25:45.519Z,100038.53
2023-05-11T17:30:51.228Z,100045.28
2023-05-11T17:35:52.826Z,100048.00
2023-05-11T17:40:54.375Z,100044.69
2023-05-11T17:45:56.044Z,100057.22
2023-05-11T17:50:57.946Z,100061.19
2023-05-11T17:55:59.946Z,100068.50
2023-05-11T18:01:08.429Z,100069.53
2023-05-11T18:06:10.102Z,100077.69
2023-05-11T18:11:12.820Z,100080.22
2023-05-11T18:16:14.654Z,100080.66
2023-05-11T18:21:16.391Z,100095.28
2023-05-11T18:26:19.229Z,100099.88
2023-05-11T18:31:21.917Z,100104.47
2023-05-11T18:36:23.781Z,100104.03
2023-05-11T18:41:25.375Z,100117.41
2023-05-11T18:46:27.158Z,100118.25
2023-05-11T18:51:29.323Z,100120.72
2023-05-11T18:56:30.978Z,100127.00
2023-05-11T19:01:46.568Z,100130.13
2023-05-11T19:06:49.463Z,100137.00
2023-05-11T19:11:51.095Z,100139.94
2023-05-11T19:16:52.771Z,100153.28
2023-05-11T19:21:54.389Z,100154.94
2023-05-11T19:27:06.458Z,100159.94
2023-05-11T19:32:08.752Z,100161.22
2023-05-11T19:37:10.452Z,100161.59
2023-05-11T19:42:12.069Z,100164.94
2023-05-11T19:47:13.729Z,100162.41
2023-05-11T19:52:15.333Z,100170.78
2023-05-11T19:57:17.302Z,100165.09
2023-05-11T20:02:19.028Z,100166.56
2023-05-11T20:07:20.753Z,100177.97
2023-05-11T20:12:22.464Z,100179.22
2023-05-11T20:17:24.117Z,100176.91
2023-05-11T20:22:26.364Z,100178.56
2023-05-11T20:27:27.945Z,100174.59
2023-05-11T20:32:29.570Z,100177.06
2023-05-11T20:37:32.201Z,100183.53
2023-05-11T20:42:33.884Z,100181.00
2023-05-11T20:47:35.498Z,100170.53
2023-05-11T20:52:37.509Z,100174.75
2023-05-11T20:57:39.334Z,100178.25
2023-05-11T21:02:41.123Z,100173.81
2023-05-11T21:07:42.723Z,100167.38
2023-05-11T21:12:44.304Z,100170.31
2023-05-11T21:17:46.085Z,100171.34
2023-05-11T21:22:48.021Z,100166.31
2023-05-11T21:27:49.603Z,100166.91
2023-05-11T21:32:51.173Z,100163.78
2023-05-11T21:37:52.777Z,100167.94
2023-05-11T21:42:54.352Z,100170.03
2023-05-11T21:47:56.161Z,100171.72
2023-05-11T21:52:57.934Z,100173.34
2023-05-11T21:57:59.701Z,100176.25
2023-05-11T22:03:01.801Z,100181.94
2023-05-11T22:08:13.813Z,100182.84
2023-05-11T22:13:16.733Z,100176.19
2023-05-11T22:18:18.615Z,100174.53
2023-05-11T22:23:21.030Z,100175.25
2023-05-11T22:28:22.911Z,100187.63
2023-05-11T22:33:25.031Z,100175.34
2023-05-11T22:38:26.861Z,100168.63
2023-05-11T22:43:28.631Z,100176.94
2023-05-11T22:48:30.395Z,100183.19
2023-05-11T22:53:32.570Z,100191.06
2023-05-11T22:58:34.280Z,100178.91
2023-05-11T23:03:35.992Z,100178.47
2023-05-11T23:08:37.631Z,100186.00
2023-05-11T23:13:40.533Z,100166.28
2023-05-11T23:18:44.012Z,100170.50
2023-05-11T23:23:45.702Z,100175.97
2023-05-11T23:28:47.272Z,100168.81
2023-05-11T23:33:48.811Z,100174.44
2023-05-11T23:38:50.371Z,100176.31
2023-05-11T23:43:52.002Z,100165.59
2023-05-11T23:48:53.564Z,100167.38
2023-05-11T23:53:55.189Z,100169.47
2023-05-11T23:58:56.733Z,100165.50
